createdAt,value
2023-02-16T00:02:01.625Z,14.30
2023-02-16T00:04:31.985Z,12.67
2023-02-16T00:07:00.179Z,13.43
2023-02-16T00:09:28.143Z,12.57
2023-02-16T00:12:13.396Z,12.70
2023-02-16T00:14:41.520Z,13.63
2023-02-16T00:17:12.880Z,13.00
2023-02-16T00:19:43.226Z,13.47
2023-02-16T00:22:11.678Z,12.97
2023-02-16T00:24:39.771Z,13.03
2023-02-16T00:27:14.090Z,12.70
2023-02-16T00:29:44.695Z,13.97
2023-02-16T00:32:15.875Z,13.43
2023-02-16T00:34:44.311Z,14.17
2023-02-16T00:37:13.769Z,15.47
2023-02-16T00:39:43.544Z,13.57
2023-02-16T00:42:15.541Z,13.67
2023-02-16T00:44:45.082Z,13.00
2023-02-16T00:47:19.961Z,12.27
2023-02-16T00:49:48.403Z,13.27
2023-02-16T00:52:29.349Z,13.03
2023-02-16T00:54:57.331Z,13.37
2023-02-16T00:57:25.882Z,14.43
2023-02-16T00:59:59.600Z,14.57
2023-02-16T01:02:29.306Z,14.03
2023-02-16T01:04:57.182Z,14.13
2023-02-16T01:07:42.294Z,14.33
2023-02-16T01:10:29.224Z,14.00
2023-02-16T01:12:57.317Z,12.37
2023-02-16T01:15:26.425Z,13.23
2023-02-16T01:17:55.760Z,13.30
2023-02-16T01:20:25.302Z,14.23
2023-02-16T01:22:53.380Z,14.33
2023-02-16T01:25:21.496Z,15.20
2023-02-16T01:27:50.442Z,14.50
2023-02-16T01:30:20.281Z,14.40
2023-02-16T01:32:51.742Z,14.37
2023-02-16T01:35:22.253Z,14.30
2023-02-16T01:37:50.386Z,14.47
2023-02-16T01:40:27.861Z,14.53
2023-02-16T01:42:58.704Z,14.53
2023-02-16T01:45:33.753Z,14.47
2023-02-16T01:48:04.820Z,14.27
2023-02-16T01:50:43.471Z,14.90
2023-02-16T01:53:20.456Z,15.70
2023-02-16T01:55:49.628Z,14.37
2023-02-16T01:58:22.215Z,13.53
2023-02-16T02:01:45.440Z,14.43
2023-02-16T02:04:40.667Z,15.43
2023-02-16T02:07:15.599Z,15.03
2023-02-16T02:09:48.261Z,14.53
2023-02-16T02:12:22.247Z,14.10
2023-02-16T02:14:50.238Z,13.67
2023-02-16T02:17:20.019Z,14.07
2023-02-16T02:19:56.477Z,14.17
2023-02-16T02:23:12.265Z,12.17
2023-02-16T02:26:06.132Z,14.73
2023-02-16T02:28:40.011Z,16.73
2023-02-16T02:31:09.589Z,14.87
2023-02-16T02:33:45.958Z,16.07
2023-02-16T02:36:24.740Z,13.37
2023-02-16T02:39:01.375Z,15.70
2023-02-16T02:41:48.236Z,16.17
2023-02-16T02:44:19.969Z,15.07
2023-02-16T02:46:48.352Z,13.57
2023-02-16T02:49:16.798Z,15.83
2023-02-16T02:51:44.724Z,13.90
2023-02-16T02:54:32.643Z,16.20
2023-02-16T02:57:37.976Z,14.30
2023-02-16T03:00:27.356Z,15.23
2023-02-16T03:02:57.835Z,14.67
2023-02-16T03:05:28.900Z,15.40
2023-02-16T03:08:06.481Z,14.40
2023-02-16T03:10:54.081Z,15.33
2023-02-16T03:13:26.291Z,13.30
2023-02-16T03:15:57.877Z,14.43
2023-02-16T03:18:45.098Z,15.13
2023-02-16T03:21:31.472Z,13.13
2023-02-16T03:24:19.551Z,13.83
2023-02-16T03:27:08.972Z,14.10
2023-02-16T03:29:38.165Z,14.43
2023-02-16T03:32:07.776Z,14.50
2023-02-16T03:34:37.703Z,14.93
2023-02-16T03:37:06.858Z,15.53
2023-02-16T03:39:55.719Z,15.57
2023-02-16T03:42:24.050Z,14.77
2023-02-16T03:44:53.501Z,15.17
2023-02-16T03:47:22.900Z,15.23
2023-02-16T03:49:50.804Z,15.47
2023-02-16T03:52:18.728Z,13.00
2023-02-16T03:54:46.624Z,13.87
2023-02-16T03:57:14.548Z,14.83
2023-02-16T03:59:42.475Z,14.77
2023-02-16T04:02:10.411Z,13.47
2023-02-16T04:04:39.900Z,14.97
2023-02-16T04:07:07.838Z,14.93
2023-02-16T04:09:35.734Z,15.80
2023-02-16T04:12:20.827Z,14.17
2023-02-16T04:14:49.172Z,12.43
2023-02-16T04:17:17.070Z,12.87
2023-02-16T04:19:46.333Z,14.80
2023-02-16T04:22:14.267Z,14.83
2023-02-16T04:24:42.197Z,14.27
2023-02-16T04:27:11.348Z,12.50
2023-02-16T04:29:39.265Z,13.43
2023-02-16T04:32:07.359Z,13.27
2023-02-16T04:34:35.360Z,12.30
2023-02-16T04:37:05.791Z,13.73
2023-02-16T04:39:33.827Z,15.20
2023-02-16T04:42:01.760Z,13.20
2023-02-16T04:44:29.759Z,14.90
2023-02-16T04:46:57.711Z,13.57
2023-02-16T04:49:25.671Z,13.93
2023-02-16T04:51:53.694Z,14.87
2023-02-16T04:54:23.042Z,14.13
2023-02-16T04:56:50.957Z,13.40
2023-02-16T04:59:18.898Z,12.50
2023-02-16T05:01:46.831Z,13.87
2023-02-16T05:04:14.796Z,13.60
2023-02-16T05:06:42.771Z,13.70
2023-02-16T05:09:11.002Z,13.47
2023-02-16T05:11:57.980Z,13.77
2023-02-16T05:14:45.000Z,13.37
2023-02-16T05:17:14.889Z,28.80
2023-02-16T05:19:43.114Z,44.70
2023-02-16T05:22:11.532Z,26.50
2023-02-16T05:24:39.625Z,39.10
2023-02-16T05:27:10.691Z,19.60
2023-02-16T05:29:38.611Z,15.90
2023-02-16T05:32:06.831Z,15.63
2023-02-16T05:34:34.841Z,16.80
2023-02-16T05:37:02.757Z,13.90
2023-02-16T05:39:30.728Z,14.70
2023-02-16T05:41:58.658Z,15.80
2023-02-16T05:44:27.986Z,14.73
2023-02-16T05:46:56.774Z,12.83
2023-02-16T05:49:24.660Z,15.77
2023-02-16T05:51:52.652Z,15.03
2023-02-16T05:54:20.573Z,15.53
2023-02-16T05:56:50.582Z,17.13
2023-02-16T05:59:19.089Z,15.70
2023-02-16T06:01:51.610Z,14.97
2023-02-16T06:04:21.083Z,15.80
2023-02-16T06:06:49.336Z,14.87
2023-02-16T06:09:17.517Z,16.53
2023-02-16T06:11:45.551Z,16.30
2023-02-16T06:14:15.828Z,15.53
2023-02-16T06:16:45.397Z,16.87
2023-02-16T06:19:15.388Z,15.30
2023-02-16T06:21:43.438Z,15.17
2023-02-16T06:24:13.226Z,15.80
2023-02-16T06:26:41.511Z,16.50
2023-02-16T06:29:09.978Z,15.17
2023-02-16T06:31:38.046Z,15.47
2023-02-16T06:34:06.736Z,15.13
2023-02-16T06:36:36.293Z,16.73
2023-02-16T06:39:04.623Z,15.50
2023-02-16T06:41:35.547Z,15.57
2023-02-16T06:44:05.523Z,22.63
2023-02-16T06:46:33.925Z,15.63
2023-02-16T06:49:02.218Z,15.57
2023-02-16T06:51:30.149Z,17.63
2023-02-16T06:53:59.488Z,16.80
2023-02-16T06:56:27.984Z,17.67
2023-02-16T06:58:55.969Z,18.03
2023-02-16T07:01:25.991Z,17.30
2023-02-16T07:03:55.362Z,19.07
2023-02-16T07:06:24.275Z,19.83
2023-02-16T07:08:52.615Z,23.23
2023-02-16T07:11:22.249Z,18.93
2023-02-16T07:13:50.175Z,16.67
2023-02-16T07:16:18.315Z,18.37
2023-02-16T07:18:46.624Z,18.33
2023-02-16T07:21:15.100Z,19.30
2023-02-16T07:23:43.350Z,17.87
2023-02-16T07:26:11.373Z,17.70
2023-02-16T07:28:40.748Z,20.37
2023-02-16T07:31:10.029Z,22.37
2023-02-16T07:33:38.082Z,19.03
2023-02-16T07:36:07.108Z,22.97
2023-02-16T07:38:35.034Z,17.83
2023-02-16T07:41:04.791Z,19.73
2023-02-16T07:43:34.696Z,18.03
2023-02-16T07:46:04.230Z,18.47
2023-02-16T07:48:32.843Z,18.73
2023-02-16T07:51:00.851Z,21.27
2023-02-16T07:53:28.969Z,18.07
2023-02-16T07:55:57.127Z,18.53
2023-02-16T07:58:31.289Z,16.47
2023-02-16T08:01:09.513Z,18.27
2023-02-16T08:03:37.450Z,18.23
2023-02-16T08:06:06.241Z,18.80
2023-02-16T08:08:34.396Z,19.03
2023-02-16T08:11:09.547Z,17.60
2023-02-16T08:13:37.503Z,18.87
2023-02-16T08:16:10.546Z,18.37
2023-02-16T08:18:38.530Z,17.53
2023-02-16T08:21:14.409Z,19.43
2023-02-16T08:23:43.611Z,19.33
2023-02-16T08:26:12.321Z,18.37
2023-02-16T08:28:46.150Z,16.50
2023-02-16T08:31:16.973Z,16.97
2023-02-16T08:33:45.144Z,17.20
2023-02-16T08:36:19.006Z,18.27
2023-02-16T08:38:50.156Z,18.90
2023-02-16T08:41:18.658Z,18.03
2023-02-16T08:43:46.912Z,18.63
2023-02-16T08:46:16.753Z,19.03
2023-02-16T08:48:45.312Z,18.30
2023-02-16T08:51:15.544Z,19.20
2023-02-16T08:53:43.478Z,17.83
2023-02-16T08:56:12.238Z,18.13
2023-02-16T08:58:40.250Z,17.33
2023-02-16T09:01:08.915Z,18.90
2023-02-16T09:03:38.530Z,18.93
2023-02-16T09:06:07.393Z,17.97
2023-02-16T09:08:37.568Z,17.47
2023-02-16T09:11:06.828Z,18.90
2023-02-16T09:13:35.715Z,19.40
2023-02-16T09:16:05.294Z,18.23
2023-02-16T09:18:33.727Z,18.90
2023-02-16T09:21:06.946Z,19.07
2023-02-16T09:23:35.786Z,18.77
2023-02-16T09:26:07.086Z,19.03
2023-02-16T09:28:35.908Z,19.20
2023-02-16T09:31:10.573Z,19.80
2023-02-16T09:33:38.660Z,17.80
2023-02-16T09:36:09.204Z,19.30
2023-02-16T09:38:37.276Z,18.27
2023-02-16T09:41:10.601Z,18.40
2023-02-16T09:43:46.636Z,17.80
2023-02-16T09:46:17.112Z,20.53
2023-02-16T09:48:47.284Z,18.50
2023-02-16T09:51:20.914Z,17.73
2023-02-16T09:53:55.779Z,19.27
2023-02-16T09:56:28.584Z,18.70
2023-02-16T09:58:59.375Z,19.40
2023-02-16T10:01:32.553Z,18.57
2023-02-16T10:04:11.984Z,17.93
2023-02-16T10:06:58.383Z,18.67
2023-02-16T10:09:28.075Z,17.60
2023-02-16T10:11:59.169Z,18.57
2023-02-16T10:14:33.599Z,18.30
2023-02-16T10:17:08.347Z,18.37
2023-02-16T10:19:40.746Z,20.80
2023-02-16T10:22:17.360Z,19.63
2023-02-16T10:24:49.897Z,16.87
2023-02-16T10:27:17.867Z,19.40
2023-02-16T10:29:45.806Z,19.37
2023-02-16T10:32:17.791Z,19.43
2023-02-16T10:34:50.139Z,18.33
2023-02-16T10:37:28.755Z,18.73
2023-02-16T10:40:05.988Z,22.93
2023-02-16T10:42:41.904Z,21.13
2023-02-16T10:45:21.060Z,19.83
2023-02-16T10:47:49.639Z,18.87
2023-02-16T10:50:23.279Z,20.20
2023-02-16T10:52:54.166Z,19.60
2023-02-16T10:55:22.180Z,19.00
2023-02-16T10:57:56.813Z,18.93
2023-02-16T11:00:30.734Z,19.17
2023-02-16T11:02:58.704Z,19.03
2023-02-16T11:05:32.785Z,18.43
2023-02-16T11:08:02.892Z,17.97
2023-02-16T11:10:40.184Z,17.70
2023-02-16T11:13:09.107Z,20.03
2023-02-16T11:15:38.603Z,18.90
2023-02-16T11:18:10.115Z,18.47
2023-02-16T11:20:56.113Z,19.23
2023-02-16T11:23:26.853Z,18.37
2023-02-16T11:26:00.549Z,18.93
2023-02-16T11:28:32.691Z,18.77
2023-02-16T11:31:03.991Z,17.03
2023-02-16T11:33:32.727Z,20.60
2023-02-16T11:36:02.437Z,20.30
2023-02-16T11:38:33.611Z,20.30
2023-02-16T11:41:03.746Z,19.97
2023-02-16T11:43:34.728Z,17.50
2023-02-16T11:46:05.379Z,21.23
2023-02-16T11:48:34.849Z,19.37
2023-02-16T11:51:05.710Z,21.80
2023-02-16T11:53:36.548Z,21.00
2023-02-16T11:56:15.312Z,20.83
2023-02-16T11:58:43.236Z,20.13
2023-02-16T12:01:20.320Z,21.27
2023-02-16T12:04:12.897Z,20.90
2023-02-16T12:06:53.173Z,19.80
2023-02-16T12:09:31.102Z,20.87
2023-02-16T12:12:04.708Z,20.67
2023-02-16T12:14:48.499Z,21.70
2023-02-16T12:17:27.874Z,22.37
2023-02-16T12:20:03.456Z,20.97
2023-02-16T12:22:41.537Z,20.50
2023-02-16T12:25:25.601Z,20.33
2023-02-16T12:27:56.971Z,23.03
2023-02-16T12:30:34.318Z,22.00
2023-02-16T12:33:11.168Z,21.37
2023-02-16T12:35:51.791Z,21.47
2023-02-16T12:38:30.246Z,21.43
2023-02-16T12:41:07.580Z,22.77
2023-02-16T12:43:39.174Z,20.83
2023-02-16T12:46:14.668Z,22.13
2023-02-16T12:48:48.160Z,22.57
2023-02-16T12:51:20.351Z,22.57
2023-02-16T12:53:53.701Z,21.23
2023-02-16T12:56:26.239Z,23.03
2023-02-16T12:59:02.484Z,23.20
2023-02-16T13:01:32.352Z,22.60
2023-02-16T13:04:04.982Z,22.17
2023-02-16T13:06:37.502Z,21.63
2023-02-16T13:09:12.681Z,22.30
2023-02-16T13:11:47.017Z,22.47
2023-02-16T13:14:19.016Z,22.40
2023-02-16T13:16:49.637Z,22.37
2023-02-16T13:19:17.656Z,21.80
2023-02-16T13:22:21.605Z,23.90
2023-02-16T13:24:59.209Z,22.00
2023-02-16T13:27:37.063Z,24.13
2023-02-16T13:30:24.638Z,23.17
2023-02-16T13:33:11.133Z,23.33
2023-02-16T13:36:12.280Z,22.50
2023-02-16T13:39:23.865Z,23.33
2023-02-16T13:42:25.536Z,24.93
2023-02-16T13:44:56.173Z,23.30
2023-02-16T13:47:27.933Z,22.83
2023-02-16T13:49:58.552Z,23.80
2023-02-16T13:52:32.255Z,22.37
2023-02-16T13:55:01.460Z,22.13
2023-02-16T13:58:04.581Z,23.53
2023-02-16T14:00:37.097Z,22.43
2023-02-16T14:03:12.071Z,21.60
2023-02-16T14:05:42.687Z,21.57
2023-02-16T14:08:24.745Z,23.03
2023-02-16T14:11:11.409Z,22.63
2023-02-16T14:13:50.912Z,21.97
2023-02-16T14:16:34.273Z,21.73
2023-02-16T14:19:05.997Z,21.43
2023-02-16T14:21:38.437Z,21.93
2023-02-16T14:24:08.636Z,20.57
2023-02-16T14:26:55.251Z,21.07
2023-02-16T14:29:25.541Z,22.40
2023-02-16T14:32:00.459Z,22.20
2023-02-16T14:34:30.400Z,21.10
2023-02-16T14:37:27.956Z,22.30
2023-02-16T14:40:07.735Z,22.30
2023-02-16T14:42:37.256Z,20.33
2023-02-16T14:45:31.615Z,21.17
2023-02-16T14:48:08.509Z,22.00
2023-02-16T14:50:47.223Z,20.50
2023-02-16T14:53:45.602Z,47.30
2023-02-16T14:56:40.416Z,25.50
2023-02-16T14:59:14.570Z,31.30
2023-02-16T15:01:43.605Z,28.43
2023-02-16T15:04:13.287Z,27.20
2023-02-16T15:06:43.885Z,23.03
2023-02-16T15:09:17.228Z,23.30
2023-02-16T15:12:08.035Z,21.70
2023-02-16T15:14:39.684Z,21.90
2023-02-16T15:17:08.135Z,22.53
2023-02-16T15:19:39.691Z,21.63
2023-02-16T15:22:20.713Z,21.10
2023-02-16T15:24:59.886Z,21.83
2023-02-16T15:27:29.803Z,21.33
2023-02-16T15:30:10.382Z,24.03
2023-02-16T15:32:38.412Z,22.03
2023-02-16T15:35:23.789Z,21.43
2023-02-16T15:38:01.191Z,21.77
2023-02-16T15:40:32.952Z,22.00
2023-02-16T15:43:09.840Z,23.03
2023-02-16T15:45:39.531Z,22.83
2023-02-16T15:48:23.503Z,23.03
2023-02-16T15:50:53.575Z,21.23
2023-02-16T15:53:28.893Z,23.33
2023-02-16T15:55:56.947Z,21.93
2023-02-16T15:58:24.949Z,23.47
2023-02-16T16:00:54.790Z,23.30
2023-02-16T16:03:23.600Z,22.40
2023-02-16T16:05:59.819Z,23.40
2023-02-16T16:08:29.196Z,22.07
2023-02-16T16:10:57.763Z,22.80
2023-02-16T16:13:26.956Z,22.37
2023-02-16T16:15:59.836Z,20.77
2023-02-16T16:18:45.796Z,22.00
2023-02-16T16:21:19.614Z,22.00
2023-02-16T16:24:02.435Z,21.80
2023-02-16T16:26:33.502Z,21.73
2023-02-16T16:29:01.970Z,25.83
2023-02-16T16:31:36.905Z,21.03
2023-02-16T16:34:07.113Z,21.07
2023-02-16T16:36:37.888Z,21.87
2023-02-16T16:39:27.976Z,22.33
2023-02-16T16:42:18.370Z,21.57
2023-02-16T16:44:54.999Z,22.00
2023-02-16T16:47:26.278Z,21.73
2023-02-16T16:49:56.361Z,23.27
2023-02-16T16:52:45.304Z,21.20
2023-02-16T16:55:32.601Z,21.53
2023-02-16T16:58:03.407Z,21.17
2023-02-16T17:00:34.636Z,22.20
2023-02-16T17:03:03.171Z,20.13
2023-02-16T17:05:31.215Z,22.27
2023-02-16T17:08:00.501Z,21.37
2023-02-16T17:10:29.546Z,19.87
2023-02-16T17:12:59.850Z,20.47
2023-02-16T17:15:35.276Z,20.57
2023-02-16T17:18:03.394Z,20.07
2023-02-16T17:20:31.412Z,19.57
2023-02-16T17:23:04.757Z,19.57
2023-02-16T17:25:36.220Z,20.77
2023-02-16T17:28:04.939Z,18.97
2023-02-16T17:30:33.504Z,18.60
2023-02-16T17:33:01.469Z,18.90
2023-02-16T17:35:29.547Z,18.93
2023-02-16T17:37:57.504Z,17.57
2023-02-16T17:40:27.544Z,18.13
2023-02-16T17:42:55.850Z,18.10
2023-02-16T17:45:26.005Z,17.00
2023-02-16T17:47:54.132Z,18.37
2023-02-16T17:50:22.410Z,17.10
2023-02-16T17:52:50.364Z,17.70
2023-02-16T17:55:18.501Z,19.33
2023-02-16T17:57:47.781Z,17.33
2023-02-16T18:00:19.131Z,17.53
2023-02-16T18:02:47.671Z,17.10
2023-02-16T18:05:15.648Z,17.40
2023-02-16T18:07:43.557Z,17.20
2023-02-16T18:10:17.957Z,16.53
2023-02-16T18:12:47.260Z,18.63
2023-02-16T18:15:15.286Z,16.50
2023-02-16T18:17:43.188Z,17.20
2023-02-16T18:20:15.860Z,17.20
2023-02-16T18:22:43.777Z,16.60
2023-02-16T18:25:11.828Z,17.27
2023-02-16T18:27:39.725Z,17.97
2023-02-16T18:30:10.296Z,18.17
2023-02-16T18:32:38.399Z,18.67
2023-02-16T18:35:06.943Z,18.00
2023-02-16T18:37:34.873Z,18.67
2023-02-16T18:40:03.533Z,19.07
2023-02-16T18:42:31.434Z,19.10
2023-02-16T18:44:59.403Z,19.27
2023-02-16T18:47:28.950Z,22.13
2023-02-16T18:49:57.216Z,23.97
2023-02-16T18:52:25.239Z,21.50
2023-02-16T18:54:53.174Z,21.47
2023-02-16T18:57:22.667Z,28.30
2023-02-16T18:59:50.691Z,22.87
2023-02-16T19:02:19.079Z,26.37
2023-02-16T19:04:48.597Z,25.37
2023-02-16T19:07:16.519Z,25.37
2023-02-16T19:09:44.430Z,22.93
2023-02-16T19:12:12.345Z,27.67
2023-02-16T19:14:40.282Z,24.20
2023-02-16T19:17:08.165Z,24.33
2023-02-16T19:19:36.843Z,26.27
2023-02-16T19:22:06.154Z,24.43
2023-02-16T19:24:34.967Z,24.53
2023-02-16T19:27:02.991Z,23.67
2023-02-16T19:29:30.965Z,24.47
2023-02-16T19:31:58.958Z,22.70
2023-02-16T19:34:27.044Z,26.00
2023-02-16T19:36:55.056Z,24.13
2023-02-16T19:39:24.364Z,23.40
2023-02-16T19:41:52.254Z,23.50
2023-02-16T19:44:23.199Z,25.50
2023-02-16T19:46:51.115Z,23.30
2023-02-16T19:49:19.297Z,22.87
2023-02-16T19:51:47.750Z,23.40
2023-02-16T19:54:15.882Z,22.13
2023-02-16T19:56:45.192Z,20.90
2023-02-16T19:59:13.112Z,22.13
2023-02-16T20:01:41.182Z,23.60
2023-02-16T20:04:10.170Z,23.60
2023-02-16T20:06:41.733Z,23.50
2023-02-16T20:09:12.148Z,22.03
2023-02-16T20:11:40.682Z,24.10
2023-02-16T20:14:09.980Z,22.83
2023-02-16T20:16:37.969Z,23.33
2023-02-16T20:19:05.926Z,24.20
2023-02-16T20:21:34.532Z,25.80
2023-02-16T20:24:04.725Z,25.50
2023-02-16T20:26:34.613Z,23.53
2023-02-16T20:29:03.576Z,24.27
2023-02-16T20:31:36.381Z,23.93
2023-02-16T20:34:05.256Z,23.90
2023-02-16T20:36:33.407Z,24.03
2023-02-16T20:39:01.338Z,24.97
2023-02-16T20:41:29.311Z,23.83
2023-02-16T20:43:57.296Z,23.73
2023-02-16T20:46:26.211Z,24.90
2023-02-16T20:48:55.609Z,22.97
2023-02-16T20:51:23.936Z,23.67
2023-02-16T20:53:51.910Z,23.40
2023-02-16T20:56:22.813Z,24.67
2023-02-16T20:58:52.512Z,22.43
2023-02-16T21:01:23.114Z,23.20
2023-02-16T21:03:51.837Z,22.13
2023-02-16T21:06:21.551Z,22.27
2023-02-16T21:08:49.746Z,22.60
2023-02-16T21:11:18.160Z,22.47
2023-02-16T21:13:46.335Z,20.60
2023-02-16T21:16:15.106Z,21.43
2023-02-16T21:18:45.719Z,20.83
2023-02-16T21:21:15.767Z,21.10
2023-02-16T21:23:46.785Z,19.27
2023-02-16T21:26:14.921Z,20.03
2023-02-16T21:28:42.878Z,19.87
2023-02-16T21:31:14.403Z,20.93
2023-02-16T21:33:42.607Z,20.27
2023-02-16T21:36:12.513Z,19.30
2023-02-16T21:38:41.288Z,21.50
2023-02-16T21:41:25.749Z,20.90
2023-02-16T21:43:55.347Z,20.87
2023-02-16T21:46:23.358Z,21.63
2023-02-16T21:48:50.442Z,20.47
2023-02-16T21:51:19.937Z,20.30
2023-02-16T21:53:48.209Z,21.80
2023-02-16T21:56:24.552Z,20.00
2023-02-16T21:58:52.476Z,21.07
2023-02-16T22:01:25.316Z,20.77
2023-02-16T22:03:56.319Z,20.60
2023-02-16T22:06:25.433Z,20.23
2023-02-16T22:08:53.573Z,19.97
2023-02-16T22:11:22.885Z,21.87
2023-02-16T22:13:54.546Z,21.17
2023-02-16T22:16:22.550Z,20.33
2023-02-16T22:18:50.756Z,19.87
2023-02-16T22:21:19.912Z,20.07
2023-02-16T22:23:47.859Z,20.83
2023-02-16T22:26:24.966Z,20.47
2023-02-16T22:28:53.384Z,19.53
2023-02-16T22:31:22.979Z,19.80
2023-02-16T22:33:56.093Z,19.73
2023-02-16T22:36:24.019Z,20.50
2023-02-16T22:38:53.994Z,19.43
2023-02-16T22:41:24.392Z,19.10
2023-02-16T22:43:53.495Z,20.60
2023-02-16T22:46:21.486Z,20.53
2023-02-16T22:48:49.472Z,21.67
2023-02-16T22:51:18.071Z,20.27
2023-02-16T22:53:46.365Z,19.97
2023-02-16T22:56:16.106Z,19.50
2023-02-16T22:58:45.425Z,21.03
2023-02-16T23:01:15.071Z,21.37
2023-02-16T23:03:43.519Z,21.03
2023-02-16T23:06:15.601Z,20.57
2023-02-16T23:08:44.199Z,20.70
2023-02-16T23:11:12.871Z,20.63
2023-02-16T23:13:41.011Z,20.17
2023-02-16T23:16:12.893Z,20.50
2023-02-16T23:18:41.019Z,20.23
2023-02-16T23:21:10.005Z,19.67
2023-02-16T23:23:38.167Z,19.23
2023-02-16T23:26:07.740Z,19.37
2023-02-16T23:28:36.298Z,21.27
2023-02-16T23:31:04.529Z,19.77
2023-02-16T23:33:34.206Z,21.13
2023-02-16T23:36:02.186Z,21.63
2023-02-16T23:38:30.326Z,23.97
2023-02-16T23:40:59.250Z,21.97
2023-02-16T23:43:27.434Z,21.63
2023-02-16T23:45:55.664Z,22.87
2023-02-16T23:48:24.385Z,21.53
2023-02-16T23:50:54.104Z,22.07
2023-02-16T23:53:23.172Z,22.47
2023-02-16T23:55:58.359Z,20.50
2023-02-16T23:58:27.576Z,20.70
